createdAt,value
2019-02-07T00:01:03.863Z,99688.02
2019-02-07T00:03:35.986Z,99688.34
2019-02-07T00:06:08.482Z,99682.96
2019-02-07T00:08:40.608Z,99682.88
2019-02-07T00:11:12.757Z,99688.02
2019-02-07T00:13:44.980Z,99688.92
2019-02-07T00:16:17.124Z,99694.09
2019-02-07T00:18:49.254Z,99694.48
2019-02-07T00:21:21.623Z,99688.89
2019-02-07T00:23:54.286Z,99688.52
2019-02-07T00:26:26.638Z,99690.34
2019-02-07T00:28:59.019Z,99690.98
2019-02-07T00:31:31.411Z,99690.38
2019-02-07T00:34:05.073Z,99687.33
2019-02-07T00:36:37.412Z,99682.91
2019-02-07T00:39:10.185Z,99674.47
2019-02-07T00:41:42.893Z,99674.72
2019-02-07T00:44:15.218Z,99668.56
2019-02-07T00:46:47.624Z,99664.73
2019-02-07T00:49:19.949Z,99663.73
2019-02-07T00:51:52.286Z,99661.04
2019-02-07T00:54:24.616Z,99659.26
2019-02-07T00:56:57.016Z,99651.89
2019-02-07T00:59:29.434Z,99652.73
2019-02-07T01:02:01.743Z,99651.45
2019-02-07T01:04:35.470Z,99643.37
2019-02-07T01:07:07.829Z,99634.12
2019-02-07T01:09:40.078Z,99626.98
2019-02-07T01:12:12.245Z,99625.06
2019-02-07T01:14:44.367Z,99625.95
2019-02-07T01:17:17.839Z,99629.03
2019-02-07T01:19:49.987Z,99626.84
2019-02-07T01:22:22.110Z,99628.46
2019-02-07T01:24:54.258Z,99623.28
2019-02-07T01:27:26.388Z,99623.62
2019-02-07T01:29:58.536Z,99620.05
2019-02-07T01:32:30.743Z,99613.48
2019-02-07T01:35:02.878Z,99612.31
2019-02-07T01:37:35.016Z,99611.45
2019-02-07T01:40:12.664Z,99609.80
2019-02-07T01:42:44.787Z,99606.84
2019-02-07T01:45:20.539Z,99600.70
2019-02-07T01:47:52.882Z,99598.28
2019-02-07T01:50:25.144Z,99600.23
2019-02-07T01:52:57.268Z,99594.63
2019-02-07T01:55:30.411Z,99589.04
2019-02-07T01:58:02.776Z,99582.28
2019-02-07T02:00:35.000Z,99580.08
2019-02-07T02:03:07.126Z,99576.43
2019-02-07T02:05:39.307Z,99580.05
2019-02-07T02:08:11.802Z,99575.63
2019-02-07T02:10:43.951Z,99569.91
2019-02-07T02:13:16.081Z,99575.92
2019-02-07T02:15:48.301Z,99567.03
2019-02-07T02:18:20.565Z,99567.14
2019-02-07T02:20:52.783Z,99561.57
2019-02-07T02:23:24.999Z,99558.83
2019-02-07T02:25:57.234Z,99553.73
2019-02-07T02:28:29.981Z,99559.75
2019-02-07T02:31:03.205Z,99561.36
2019-02-07T02:33:35.530Z,99565.27
2019-02-07T02:36:07.957Z,99561.75
2019-02-07T02:38:40.215Z,99556.36
2019-02-07T02:41:12.948Z,99548.44
2019-02-07T02:43:45.243Z,99536.85
2019-02-07T02:46:17.644Z,99522.41
2019-02-07T02:48:50.039Z,99523.58
2019-02-07T02:51:22.198Z,99523.98
2019-02-07T02:53:56.311Z,99521.54
2019-02-07T02:56:28.800Z,99521.75
2019-02-07T02:59:01.047Z,99504.22
2019-02-07T03:01:41.486Z,99502.36
2019-02-07T03:04:28.747Z,99492.95
2019-02-07T03:07:18.917Z,99492.23
2019-02-07T03:10:00.024Z,99485.70
2019-02-07T03:12:50.578Z,99478.28
2019-02-07T03:15:50.506Z,99476.89
2019-02-07T03:19:00.089Z,99477.08
2019-02-07T03:21:47.552Z,99477.63
2019-02-07T03:24:50.812Z,99471.27
2019-02-07T03:27:38.362Z,99472.58
2019-02-07T03:30:48.689Z,99457.59
2019-02-07T03:33:49.945Z,99456.97
2019-02-07T03:36:35.411Z,99450.13
2019-02-07T03:39:18.658Z,99442.81
2019-02-07T03:42:05.293Z,99437.04
2019-02-07T03:45:05.568Z,99434.88
2019-02-07T03:47:59.878Z,99440.11
2019-02-07T03:50:59.861Z,99435.06
2019-02-07T03:53:47.144Z,99434.36
2019-02-07T03:56:44.752Z,99434.04
2019-02-07T03:59:35.002Z,99442.16
2019-02-07T04:02:26.351Z,99442.42
2019-02-07T04:05:25.113Z,99433.48
2019-02-07T04:08:15.217Z,99426.50
2019-02-07T04:11:08.361Z,99413.20
2019-02-07T04:13:58.106Z,99410.26
2019-02-07T04:16:50.129Z,99421.14
2019-02-07T04:19:41.330Z,99422.91
2019-02-07T04:22:51.212Z,99421.43
2019-02-07T04:25:33.335Z,99422.73
2019-02-07T04:28:29.474Z,99420.55
2019-02-07T04:31:26.780Z,99403.50
2019-02-07T04:34:14.851Z,99407.54
2019-02-07T04:37:11.929Z,99398.03
2019-02-07T04:39:55.690Z,99401.73
2019-02-07T04:42:38.492Z,99390.28
2019-02-07T04:45:28.643Z,99393.06
2019-02-07T04:48:13.978Z,99388.20
2019-02-07T04:51:07.908Z,99387.62
2019-02-07T04:53:57.701Z,99387.06
2019-02-07T04:56:50.914Z,99380.12
2019-02-07T04:59:38.211Z,99373.86
2019-02-07T05:02:32.690Z,99357.90
2019-02-07T05:05:22.456Z,99342.27
2019-02-07T05:08:08.130Z,99344.77
2019-02-07T05:11:11.580Z,99346.05
2019-02-07T05:14:18.964Z,99357.91
2019-02-07T05:17:18.235Z,99358.59
2019-02-07T05:20:08.427Z,99373.05
2019-02-07T05:22:59.624Z,99376.41
2019-02-07T05:25:47.375Z,99368.36
2019-02-07T05:28:38.468Z,99364.44
2019-02-07T05:31:29.724Z,99368.50
2019-02-07T05:34:35.982Z,99375.46
2019-02-07T05:37:27.025Z,99372.78
2019-02-07T05:40:21.584Z,99376.86
2019-02-07T05:43:21.698Z,99370.39
2019-02-07T05:46:21.879Z,99364.34
2019-02-07T05:49:06.622Z,99358.48
2019-02-07T05:52:09.888Z,99356.03
2019-02-07T05:55:07.154Z,99339.47
2019-02-07T05:58:04.077Z,99346.56
2019-02-07T06:00:55.329Z,99344.30
2019-02-07T06:03:52.656Z,99341.16
2019-02-07T06:06:49.708Z,99330.55
2019-02-07T06:09:41.120Z,99324.94
2019-02-07T06:12:38.137Z,99312.30
2019-02-07T06:15:26.377Z,99318.81
2019-02-07T06:18:17.526Z,99320.68
2019-02-07T06:21:06.537Z,99327.88
2019-02-07T06:23:44.635Z,99311.33
2019-02-07T06:26:24.317Z,99318.30
2019-02-07T06:29:18.394Z,99323.09
2019-02-07T06:32:12.368Z,99318.81
2019-02-07T06:35:00.909Z,99316.37
2019-02-07T06:37:49.776Z,99317.98
2019-02-07T06:40:44.593Z,99312.48
2019-02-07T06:43:43.793Z,99319.34
2019-02-07T06:46:41.330Z,99315.66
2019-02-07T06:49:26.524Z,99311.39
2019-02-07T06:52:27.180Z,99316.16
2019-02-07T06:55:20.027Z,99311.36
2019-02-07T06:58:11.558Z,99307.81
2019-02-07T07:01:02.881Z,99307.30
2019-02-07T07:03:54.143Z,99302.61
2019-02-07T07:06:49.245Z,99299.72
2019-02-07T07:09:29.894Z,99294.77
2019-02-07T07:12:24.611Z,99287.84
2019-02-07T07:15:31.051Z,99282.96
2019-02-07T07:18:18.620Z,99277.70
2019-02-07T07:21:13.106Z,99281.16
2019-02-07T07:24:19.491Z,99277.66
2019-02-07T07:27:17.002Z,99281.71
2019-02-07T07:30:00.671Z,99280.98
2019-02-07T07:32:46.982Z,99281.87
2019-02-07T07:35:50.297Z,99278.55
2019-02-07T07:38:48.047Z,99267.47
2019-02-07T07:41:41.892Z,99259.73
2019-02-07T07:44:45.139Z,99251.20
2019-02-07T07:47:39.201Z,99242.56
2019-02-07T07:50:29.922Z,99252.43
2019-02-07T07:53:30.281Z,99261.22
2019-02-07T07:56:11.251Z,99260.38
2019-02-07T07:59:17.893Z,99261.64
2019-02-07T08:02:08.277Z,99259.82
2019-02-07T08:04:58.273Z,99257.02
2019-02-07T08:07:48.471Z,99260.35
2019-02-07T08:10:48.932Z,99258.92
2019-02-07T08:13:38.985Z,99252.53
2019-02-07T08:16:36.104Z,99250.55
2019-02-07T08:19:30.037Z,99257.28
2019-02-07T08:22:20.188Z,99252.61
2019-02-07T08:25:17.243Z,99250.23
2019-02-07T08:28:07.211Z,99240.66
2019-02-07T08:30:51.748Z,99238.27
2019-02-07T08:33:54.912Z,99250.94
2019-02-07T08:36:54.932Z,99249.42
2019-02-07T08:39:45.034Z,99246.11
2019-02-07T08:42:38.180Z,99241.84
2019-02-07T08:45:24.733Z,99245.87
2019-02-07T08:48:31.319Z,99252.44
2019-02-07T08:51:21.075Z,99248.63
2019-02-07T08:54:10.914Z,99244.45
2019-02-07T08:57:08.363Z,99235.70
2019-02-07T09:00:01.529Z,99233.05
2019-02-07T09:02:52.723Z,99230.82
2019-02-07T09:05:42.754Z,99228.12
2019-02-07T09:08:36.865Z,99224.66
2019-02-07T09:11:26.811Z,99218.05
2019-02-07T09:14:16.017Z,99219.42
2019-02-07T09:17:10.840Z,99220.18
2019-02-07T09:20:05.076Z,99230.00
2019-02-07T09:23:00.645Z,99221.77
2019-02-07T09:25:51.860Z,99228.28
2019-02-07T09:28:43.421Z,99212.09
2019-02-07T09:31:33.377Z,99217.48
2019-02-07T09:34:24.436Z,99218.47
2019-02-07T09:37:26.981Z,99216.76
2019-02-07T09:40:27.347Z,99217.65
2019-02-07T09:43:15.167Z,99216.52
2019-02-07T09:46:12.471Z,99218.57
2019-02-07T09:49:02.200Z,99223.98
2019-02-07T09:51:42.851Z,99226.75
2019-02-07T09:54:43.404Z,99225.70
2019-02-07T09:57:25.688Z,99232.67
2019-02-07T10:00:06.275Z,99224.84
2019-02-07T10:02:53.614Z,99228.38
2019-02-07T10:05:43.422Z,99229.73
2019-02-07T10:08:33.286Z,99238.92
2019-02-07T10:11:27.543Z,99250.58
2019-02-07T10:14:21.177Z,99257.77
2019-02-07T10:17:17.130Z,99237.09
2019-02-07T10:20:02.608Z,99241.44
2019-02-07T10:23:11.984Z,99236.09
2019-02-07T10:26:09.219Z,99233.09
2019-02-07T10:29:00.452Z,99244.97
2019-02-07T10:31:54.582Z,99237.73
2019-02-07T10:34:54.665Z,99231.23
2019-02-07T10:37:49.445Z,99231.16
2019-02-07T10:40:39.190Z,99227.11
2019-02-07T10:43:36.877Z,99223.78
2019-02-07T10:46:26.548Z,99218.27
2019-02-07T10:49:23.530Z,99222.36
2019-02-07T10:52:22.211Z,99222.85
2019-02-07T10:55:16.459Z,99221.63
2019-02-07T10:57:57.867Z,99210.81
2019-02-07T11:00:54.793Z,99202.89
2019-02-07T11:03:43.564Z,99212.12
2019-02-07T11:06:30.980Z,99206.45
2019-02-07T11:09:37.279Z,99206.44
2019-02-07T11:12:40.974Z,99195.96
2019-02-07T11:15:33.126Z,99203.39
2019-02-07T11:18:23.354Z,99198.67
2019-02-07T11:21:17.514Z,99202.28
2019-02-07T11:24:07.647Z,99196.84
2019-02-07T11:26:58.871Z,99196.91
2019-02-07T11:29:56.406Z,99195.78
2019-02-07T11:32:45.495Z,99195.06
2019-02-07T11:35:33.333Z,99191.34
2019-02-07T11:38:23.470Z,99180.59
2019-02-07T11:41:14.633Z,99182.64
2019-02-07T11:44:03.002Z,99175.24
2019-02-07T11:47:05.563Z,99176.05
2019-02-07T11:49:44.923Z,99171.36
2019-02-07T11:52:34.855Z,99163.90
2019-02-07T11:55:41.831Z,99166.29
2019-02-07T11:58:45.027Z,99160.91
2019-02-07T12:01:35.162Z,99163.16
2019-02-07T12:04:44.729Z,99157.45
2019-02-07T12:07:35.787Z,99152.39
2019-02-07T12:10:31.258Z,99151.19
2019-02-07T12:13:25.607Z,99143.00
2019-02-07T12:16:19.533Z,99136.97
2019-02-07T12:19:17.803Z,99140.59
2019-02-07T12:22:05.027Z,99143.60
2019-02-07T12:24:51.823Z,99133.47
2019-02-07T12:27:51.933Z,99128.30
2019-02-07T12:30:37.637Z,99120.45
2019-02-07T12:33:31.437Z,99125.42
2019-02-07T12:36:14.426Z,99127.45
2019-02-07T12:39:06.543Z,99126.09
2019-02-07T12:41:50.106Z,99126.66
2019-02-07T12:44:41.239Z,99119.53
2019-02-07T12:47:43.357Z,99128.27
2019-02-07T12:50:34.546Z,99129.14
2019-02-07T12:53:31.924Z,99127.80
2019-02-07T12:56:17.196Z,99117.98
2019-02-07T12:59:14.660Z,99115.34
2019-02-07T13:02:04.957Z,99116.05
2019-02-07T13:05:11.088Z,99119.80
2019-02-07T13:08:03.172Z,99123.16
2019-02-07T13:10:44.587Z,99129.16
2019-02-07T13:13:34.536Z,99128.27
2019-02-07T13:16:16.813Z,99132.09
2019-02-07T13:19:06.842Z,99127.57
2019-02-07T13:21:52.845Z,99131.50
2019-02-07T13:24:53.362Z,99126.83
2019-02-07T13:27:46.234Z,99122.77
2019-02-07T13:30:49.665Z,99118.48
2019-02-07T13:33:43.996Z,99128.54
2019-02-07T13:36:31.127Z,99132.20
2019-02-07T13:39:27.582Z,99131.63
2019-02-07T13:42:32.611Z,99129.25
2019-02-07T13:45:27.439Z,99129.70
2019-02-07T13:48:19.106Z,99133.64
2019-02-07T13:51:19.350Z,99133.95
2019-02-07T13:54:16.579Z,99134.08
2019-02-07T13:57:17.457Z,99139.64
2019-02-07T14:00:14.619Z,99145.35
2019-02-07T14:03:04.712Z,99144.73
2019-02-07T14:05:55.654Z,99137.44
2019-02-07T14:08:47.170Z,99118.38
2019-02-07T14:11:32.639Z,99123.14
2019-02-07T14:14:23.496Z,99110.13
2019-02-07T14:17:20.879Z,99098.94
2019-02-07T14:20:27.768Z,99106.42
2019-02-07T14:23:22.917Z,99109.45
2019-02-07T14:26:09.268Z,99139.86
2019-02-07T14:29:03.992Z,99152.01
2019-02-07T14:31:54.577Z,99155.16
2019-02-07T14:34:53.870Z,99168.00
2019-02-07T14:37:44.978Z,99164.48
2019-02-07T14:40:48.189Z,99156.62
2019-02-07T14:43:38.559Z,99167.22
2019-02-07T14:46:31.926Z,99168.51
2019-02-07T14:49:04.088Z,99169.28
2019-02-07T14:51:36.441Z,99176.19
2019-02-07T14:54:08.909Z,99169.33
2019-02-07T14:56:41.051Z,99172.65
2019-02-07T14:59:13.924Z,99171.36
2019-02-07T15:01:46.763Z,99161.91
2019-02-07T15:04:19.012Z,99169.89
2019-02-07T15:06:51.812Z,99179.36
2019-02-07T15:09:24.657Z,99166.72
2019-02-07T15:11:57.284Z,99173.92
2019-02-07T15:14:29.649Z,99163.31
2019-02-07T15:17:02.135Z,99157.02
2019-02-07T15:19:34.965Z,99162.83
2019-02-07T15:22:07.936Z,99172.67
2019-02-07T15:24:40.534Z,99167.88
2019-02-07T15:27:15.496Z,99179.88
2019-02-07T15:29:50.022Z,99176.95
2019-02-07T15:32:23.251Z,99172.07
2019-02-07T15:34:55.533Z,99173.36
2019-02-07T15:37:28.245Z,99176.91
2019-02-07T15:40:00.498Z,99179.19
2019-02-07T15:42:33.582Z,99187.55
2019-02-07T15:45:07.830Z,99183.01
2019-02-07T15:47:40.199Z,99187.55
2019-02-07T15:50:18.300Z,99192.09
2019-02-07T15:52:52.179Z,99199.30
2019-02-07T15:55:25.012Z,99198.24
2019-02-07T15:57:58.557Z,99193.20
2019-02-07T16:00:49.034Z,99200.88
2019-02-07T16:03:44.331Z,99195.63
2019-02-07T16:06:17.266Z,99200.70
2019-02-07T16:08:50.779Z,99201.72
2019-02-07T16:11:24.207Z,99199.30
2019-02-07T16:13:57.267Z,99205.48
2019-02-07T16:16:29.527Z,99206.76
2019-02-07T16:19:01.788Z,99207.29
2019-02-07T16:21:35.076Z,99210.31
2019-02-07T16:24:07.842Z,99211.17
2019-02-07T16:26:40.767Z,99220.20
2019-02-07T16:29:13.392Z,99222.16
2019-02-07T16:31:45.637Z,99221.30
2019-02-07T16:34:18.862Z,99218.63
2019-02-07T16:36:51.270Z,99224.97
2019-02-07T16:39:23.410Z,99223.31
2019-02-07T16:42:05.622Z,99225.11
2019-02-07T16:44:29.416Z,99224.84
2019-02-07T16:47:01.682Z,99228.89
2019-02-07T16:49:33.949Z,99237.44
2019-02-07T16:52:06.120Z,99239.09
2019-02-07T16:54:38.346Z,99255.13
2019-02-07T16:57:11.441Z,99257.20
2019-02-07T16:59:43.561Z,99265.76
2019-02-07T17:02:15.799Z,99269.92
2019-02-07T17:04:47.936Z,99265.34
2019-02-07T17:07:20.104Z,99275.46
2019-02-07T17:09:52.755Z,99276.97
2019-02-07T17:12:24.912Z,99287.80
2019-02-07T17:14:57.044Z,99293.08
2019-02-07T17:17:29.292Z,99296.53
2019-02-07T17:20:01.424Z,99295.88
2019-02-07T17:22:35.264Z,99295.68
2019-02-07T17:25:07.483Z,99292.13
2019-02-07T17:27:39.709Z,99293.41
2019-02-07T17:30:16.618Z,99298.17
2019-02-07T17:32:48.839Z,99307.37
2019-02-07T17:35:21.043Z,99303.14
2019-02-07T17:37:53.443Z,99307.84
2019-02-07T17:40:25.591Z,99299.81
2019-02-07T17:42:57.998Z,99302.90
2019-02-07T17:45:30.737Z,99307.03
2019-02-07T17:48:02.876Z,99310.23
2019-02-07T17:50:35.271Z,99311.92
2019-02-07T17:53:07.893Z,99313.84
2019-02-07T17:55:40.159Z,99315.50
2019-02-07T17:58:12.951Z,99316.25
2019-02-07T18:00:59.630Z,99314.04
2019-02-07T18:03:32.471Z,99316.09
2019-02-07T18:06:06.881Z,99319.58
2019-02-07T18:08:39.031Z,99326.82
2019-02-07T18:11:11.264Z,99323.89
2019-02-07T18:13:43.474Z,99328.71
2019-02-07T18:16:15.596Z,99327.92
2019-02-07T18:18:47.747Z,99327.46
2019-02-07T18:21:20.634Z,99330.78
2019-02-07T18:23:53.993Z,99326.61
2019-02-07T18:26:26.705Z,99332.71
2019-02-07T18:28:59.566Z,99331.67
2019-02-07T18:31:31.900Z,99333.41
2019-02-07T18:34:05.529Z,99331.15
2019-02-07T18:36:37.739Z,99335.59
2019-02-07T18:39:10.836Z,99333.58
2019-02-07T18:41:46.025Z,99339.56
2019-02-07T18:44:18.062Z,99341.62
2019-02-07T18:46:50.267Z,99338.10
2019-02-07T18:49:22.418Z,99344.39
2019-02-07T18:51:54.559Z,99347.02
2019-02-07T18:54:26.704Z,99348.61
2019-02-07T18:56:59.043Z,99353.55
2019-02-07T18:59:31.490Z,99357.67
2019-02-07T19:02:03.627Z,99363.80
2019-02-07T19:04:35.779Z,99371.42
2019-02-07T19:07:07.985Z,99374.91
2019-02-07T19:09:40.166Z,99372.16
2019-02-07T19:12:12.294Z,99372.70
2019-02-07T19:14:46.015Z,99384.69
2019-02-07T19:17:18.214Z,99389.38
2019-02-07T19:19:50.440Z,99391.67
2019-02-07T19:22:22.571Z,99392.27
2019-02-07T19:24:54.728Z,99397.42
2019-02-07T19:27:26.921Z,99397.34
2019-02-07T19:29:59.261Z,99396.69
2019-02-07T19:32:31.507Z,99399.87
2019-02-07T19:35:03.661Z,99403.08
2019-02-07T19:37:35.862Z,99412.76
2019-02-07T19:40:10.254Z,99410.22
2019-02-07T19:42:42.896Z,99413.75
2019-02-07T19:45:16.324Z,99419.30
2019-02-07T19:47:48.717Z,99417.80
2019-02-07T19:50:24.088Z,99419.69
2019-02-07T19:52:56.305Z,99422.55
2019-02-07T19:55:29.604Z,99420.47
2019-02-07T19:58:03.059Z,99423.78
2019-02-07T20:00:35.468Z,99420.95
2019-02-07T20:03:07.666Z,99426.56
2019-02-07T20:05:40.085Z,99428.56
2019-02-07T20:08:12.510Z,99431.16
2019-02-07T20:10:44.664Z,99432.10
2019-02-07T20:13:16.795Z,99430.69
2019-02-07T20:15:49.104Z,99434.80
2019-02-07T20:18:21.382Z,99430.64
2019-02-07T20:20:53.615Z,99429.22
2019-02-07T20:23:26.300Z,99426.52
2019-02-07T20:25:58.519Z,99422.56
2019-02-07T20:28:30.719Z,99424.80
2019-02-07T20:31:03.120Z,99424.47
2019-02-07T20:33:35.467Z,99427.97
2019-02-07T20:36:07.970Z,99430.64
2019-02-07T20:38:40.245Z,99433.19
2019-02-07T20:41:12.464Z,99432.72
2019-02-07T20:43:44.779Z,99428.83
2019-02-07T20:46:17.088Z,99434.81
2019-02-07T20:48:49.300Z,99435.38
2019-02-07T20:51:21.547Z,99439.80
2019-02-07T20:53:54.809Z,99440.12
2019-02-07T20:56:27.128Z,99440.34
2019-02-07T20:58:59.333Z,99441.80
2019-02-07T21:01:31.512Z,99448.84
2019-02-07T21:04:03.650Z,99450.75
2019-02-07T21:06:36.881Z,99454.54
2019-02-07T21:09:10.406Z,99457.83
2019-02-07T21:11:42.673Z,99453.05
2019-02-07T21:14:14.810Z,99449.94
2019-02-07T21:16:46.977Z,99451.77
2019-02-07T21:19:19.116Z,99452.23
2019-02-07T21:21:51.276Z,99461.30
2019-02-07T21:24:23.481Z,99464.87
2019-02-07T21:26:55.777Z,99475.52
2019-02-07T21:29:27.911Z,99482.31
2019-02-07T21:32:00.311Z,99475.58
2019-02-07T21:34:32.602Z,99489.39
2019-02-07T21:37:05.182Z,99478.03
2019-02-07T21:39:37.386Z,99478.81
2019-02-07T21:42:11.152Z,99497.80
2019-02-07T21:44:43.411Z,99502.85
2019-02-07T21:47:15.746Z,99509.94
2019-02-07T21:49:47.952Z,99516.84
2019-02-07T21:52:20.144Z,99516.77
2019-02-07T21:54:52.523Z,99521.11
2019-02-07T21:57:24.692Z,99521.59
2019-02-07T22:00:00.946Z,99525.23
2019-02-07T22:02:30.842Z,99524.19
2019-02-07T22:05:03.252Z,99522.86
2019-02-07T22:07:35.594Z,99524.61
2019-02-07T22:10:10.349Z,99522.21
2019-02-07T22:12:42.598Z,99528.58
2019-02-07T22:15:18.757Z,99532.53
2019-02-07T22:17:51.299Z,99535.08
2019-02-07T22:20:24.751Z,99535.94
2019-02-07T22:22:57.237Z,99538.53
2019-02-07T22:25:31.943Z,99542.50
2019-02-07T22:28:04.670Z,99541.09
2019-02-07T22:30:36.853Z,99545.28
2019-02-07T22:33:09.250Z,99545.91
2019-02-07T22:35:41.380Z,99541.88
2019-02-07T22:38:13.619Z,99544.97
2019-02-07T22:40:45.827Z,99539.50
2019-02-07T22:43:18.115Z,99541.22
2019-02-07T22:45:50.320Z,99539.32
2019-02-07T22:48:22.685Z,99542.08
2019-02-07T22:50:55.629Z,99533.53
2019-02-07T22:53:28.050Z,99536.23
2019-02-07T22:56:00.212Z,99541.69
2019-02-07T22:58:32.733Z,99539.01
2019-02-07T23:01:53.227Z,99543.11
2019-02-07T23:04:27.238Z,99545.20
2019-02-07T23:06:59.359Z,99545.80
2019-02-07T23:09:31.520Z,99545.25
2019-02-07T23:12:03.737Z,99547.08
2019-02-07T23:14:36.371Z,99548.98
2019-02-07T23:17:08.494Z,99552.70
2019-02-07T23:19:40.711Z,99554.56
2019-02-07T23:22:12.845Z,99553.27
2019-02-07T23:24:45.012Z,99555.16
2019-02-07T23:27:17.234Z,99567.78
2019-02-07T23:29:49.464Z,99566.66
2019-02-07T23:32:21.681Z,99568.41
2019-02-07T23:34:54.190Z,99568.95
2019-02-07T23:37:26.335Z,99570.54
2019-02-07T23:39:58.492Z,99574.92
2019-02-07T23:42:30.735Z,99574.45
2019-02-07T23:45:02.979Z,99580.41
2019-02-07T23:47:35.496Z,99578.73
2019-02-07T23:50:07.928Z,99576.91
2019-02-07T23:52:40.138Z,99577.98
2019-02-07T23:55:13.008Z,99579.19
2019-02-07T23:57:45.561Z,99580.25
